Time;durP1;ratioP1;P1;durP2;ratioP2;P2;SDS_P1;SDS_P2;PMS_P1;PMS_P2;Temp;Humidity;BMP_temperature;BMP_pressure;BME280_temperature;BME280_humidity;BME280_pressure;Samples;Min_cycle;Max_cycle;Signal;HPM_P1;HPM_P2
2021/12/30 00:01:04;;;;;;;35.42;6.28;;;9.10;99.90;;;;;;5107530;28;20048;-64
2021/12/30 00:03:30;;;;;;;29.83;5.65;;;9.10;99.90;;;;;;5107150;28;20522;-64
2021/12/30 00:05:56;;;;;;;33.33;6.18;;;9.00;99.90;;;;;;5106434;28;20083;-64
2021/12/30 00:08:23;;;;;;;35.00;5.85;;;9.10;99.90;;;;;;5109424;28;20040;-64
2021/12/30 00:10:50;;;;;;;31.77;5.60;;;9.10;99.90;;;;;;5107345;28;20036;-64
2021/12/30 00:13:16;;;;;;;33.45;5.72;;;9.00;99.90;;;;;;5106625;28;20104;-64
2021/12/30 00:15:42;;;;;;;35.50;7.25;;;9.10;99.90;;;;;;5106789;28;20079;-64
2021/12/30 00:18:09;;;;;;;34.88;7.55;;;9.20;99.90;;;;;;5106751;28;20044;-64
2021/12/30 00:20:36;;;;;;;36.13;6.05;;;9.10;99.90;;;;;;5125128;28;20468;-64
2021/12/30 00:23:04;;;;;;;40.88;6.47;;;9.30;99.90;;;;;;5107424;28;20492;-64
2021/12/30 00:25:37;;;;;;;37.00;6.70;;;9.20;99.90;;;;;;5107536;28;20534;-64
2021/12/30 00:28:05;;;;;;;34.13;7.50;;;9.20;99.90;;;;;;5102070;28;20222;-64
2021/12/30 00:30:31;;;;;;;49.03;7.78;;;9.30;99.90;;;;;;5106748;28;20121;-64
2021/12/30 00:32:57;;;;;;;32.38;6.05;;;9.10;99.90;;;;;;5106835;28;20149;-64
2021/12/30 00:35:23;;;;;;;40.10;8.40;;;9.10;99.90;;;;;;5106605;28;20097;-64
2021/12/30 00:37:48;;;;;;;41.80;6.38;;;9.00;99.90;;;;;;5108644;28;20384;-64
2021/12/30 00:40:14;;;;;;;49.35;7.65;;;8.90;99.90;;;;;;5102626;28;20131;-64
2021/12/30 00:42:40;;;;;;;43.08;6.63;;;9.00;99.90;;;;;;5107538;28;20048;-64
2021/12/30 00:45:06;;;;;;;31.88;5.47;;;8.90;99.90;;;;;;5105162;28;20063;-64
2021/12/30 00:47:32;;;;;;;38.50;7.10;;;8.80;99.90;;;;;;5105402;28;20066;-64
2021/12/30 00:49:58;;;;;;;40.00;6.25;;;8.90;99.90;;;;;;5107041;28;20100;-64
2021/12/30 00:52:24;;;;;;;41.15;8.60;;;9.00;99.90;;;;;;5106270;28;20139;-64
2021/12/30 00:54:50;;;;;;;41.70;7.68;;;9.10;99.90;;;;;;5105201;28;20040;-64
2021/12/30 00:57:16;;;;;;;34.03;6.00;;;9.10;99.90;;;;;;5105692;28;20577;-64
2021/12/30 00:59:41;;;;;;;40.28;6.60;;;9.00;99.90;;;;;;5105712;28;20103;-64
2021/12/30 01:02:07;;;;;;;40.90;8.27;;;9.00;99.90;;;;;;5105935;28;20048;-64
2021/12/30 01:04:33;;;;;;;36.65;6.03;;;9.00;99.90;;;;;;5107354;28;20044;-64
2021/12/30 01:06:59;;;;;;;32.28;5.55;;;8.80;99.90;;;;;;5106523;28;20043;-64
2021/12/30 01:09:25;;;;;;;31.83;6.25;;;8.80;99.90;;;;;;5105271;28;20054;-64
2021/12/30 01:11:51;;;;;;;37.63;5.57;;;8.80;99.90;;;;;;5121748;28;20131;-64
2021/12/30 01:14:21;;;;;;;38.40;6.45;;;8.60;99.90;;;;;;5106007;28;20066;-64
2021/12/30 01:16:51;;;;;;;42.03;7.25;;;8.60;99.90;;;;;;5105047;28;20052;-64
2021/12/30 01:21:52;;;;;;;31.58;5.60;;;8.60;99.90;;;;;;5104660;28;20040;-64
2021/12/30 01:24:18;;;;;;;37.97;5.88;;;8.70;99.90;;;;;;5105656;28;20052;-64
2021/12/30 01:26:44;;;;;;;41.72;7.47;;;8.80;99.90;;;;;;5105539;28;20052;-64
2021/12/30 01:29:10;;;;;;;34.55;5.50;;;8.80;99.90;;;;;;5107944;28;20559;-64
2021/12/30 01:31:35;;;;;;;40.97;5.85;;;8.80;99.90;;;;;;5106756;28;20044;-64
2021/12/30 01:34:01;;;;;;;46.70;8.23;;;8.80;99.90;;;;;;5104536;28;20062;-64
2021/12/30 01:36:27;;;;;;;26.77;6.07;;;8.80;99.90;;;;;;5103986;28;20516;-64
2021/12/30 01:38:54;;;;;;;32.63;5.88;;;8.80;99.90;;;;;;5104347;28;20083;-64
2021/12/30 01:41:21;;;;;;;44.10;6.32;;;8.70;99.90;;;;;;5105400;28;20060;-64
2021/12/30 01:43:48;;;;;;;35.40;6.18;;;8.80;99.90;;;;;;5097188;28;20040;-64
2021/12/30 01:46:15;;;;;;;40.58;7.43;;;8.90;99.90;;;;;;5103817;28;20052;-64
2021/12/30 01:48:41;;;;;;;36.38;6.15;;;8.90;99.90;;;;;;5100296;28;20051;-64
2021/12/30 01:51:08;;;;;;;36.22;5.85;;;8.90;99.90;;;;;;5104660;28;20059;-64
2021/12/30 01:53:34;;;;;;;37.35;5.20;;;8.80;99.90;;;;;;5102685;28;20063;-64
2021/12/30 01:56:01;;;;;;;30.92;5.82;;;8.90;99.90;;;;;;5104876;28;20048;-64
2021/12/30 01:58:27;;;;;;;28.63;6.55;;;8.80;99.90;;;;;;5105124;28;20129;-64
2021/12/30 02:00:53;;;;;;;30.27;6.78;;;8.80;99.90;;;;;;5103977;28;20496;-64
2021/12/30 02:03:20;;;;;;;34.13;5.70;;;8.80;99.90;;;;;;5103855;28;20040;-64
2021/12/30 02:05:47;;;;;;;33.25;6.22;;;8.80;99.90;;;;;;5103399;28;20115;-64
2021/12/30 02:08:15;;;;;;;32.53;5.13;;;8.70;99.90;;;;;;5103379;28;20040;-64
2021/12/30 02:10:45;;;;;;;37.20;6.60;;;8.70;99.90;;;;;;5103828;28;20097;-64
2021/12/30 02:13:12;;;;;;;34.97;5.73;;;8.70;99.90;;;;;;5106269;28;20581;-64
2021/12/30 02:15:39;;;;;;;34.25;5.80;;;8.80;99.90;;;;;;5104969;28;20722;-64
2021/12/30 02:18:05;;;;;;;36.75;6.10;;;8.70;99.90;;;;;;5104550;28;20040;-64
2021/12/30 02:20:47;;;;;;;31.98;5.72;;;8.70;99.90;;;;;;5106056;28;20081;-64
2021/12/30 02:23:33;;;;;;;26.25;6.25;;;8.80;99.90;;;;;;5104768;28;20047;-64
2021/12/30 02:26:02;;;;;;;37.33;7.18;;;8.60;99.90;;;;;;5103549;28;20101;-64
2021/12/30 02:28:31;;;;;;;41.13;6.47;;;8.70;99.90;;;;;;5099600;28;20040;-64
2021/12/30 02:30:59;;;;;;;35.15;6.15;;;8.60;99.90;;;;;;5106449;28;20312;-64
2021/12/30 02:33:25;;;;;;;34.42;5.63;;;8.70;99.90;;;;;;5106734;28;20052;-64
2021/12/30 02:35:52;;;;;;;36.95;5.95;;;8.50;99.90;;;;;;5103753;28;20103;-64
2021/12/30 02:38:20;;;;;;;33.45;7.05;;;8.50;99.90;;;;;;5106669;28;20731;-64
2021/12/30 02:40:53;;;;;;;43.72;7.95;;;8.60;99.90;;;;;;5099530;28;20044;-64
2021/12/30 02:43:21;;;;;;;41.75;9.18;;;8.60;99.90;;;;;;5105431;28;20048;-64
2021/12/30 02:45:47;;;;;;;41.80;10.05;;;8.80;99.90;;;;;;5103429;28;20043;-64
2021/12/30 02:48:17;;;;;;;48.78;12.07;;;8.80;99.90;;;;;;5105643;28;20129;-64
2021/12/30 02:50:45;;;;;;;46.03;12.18;;;9.00;99.90;;;;;;5103315;28;20067;-64
2021/12/30 02:53:12;;;;;;;59.75;14.57;;;9.00;99.90;;;;;;5102538;28;20059;-64
2021/12/30 02:55:38;;;;;;;43.05;12.68;;;9.20;99.90;;;;;;5104762;28;20055;-64
2021/12/30 02:58:04;;;;;;;53.25;13.45;;;9.10;99.90;;;;;;5104331;28;20055;-64
2021/12/30 03:00:30;;;;;;;44.08;14.05;;;9.20;99.90;;;;;;5105677;28;20047;-64
2021/12/30 03:02:56;;;;;;;62.53;17.10;;;9.20;99.90;;;;;;5104519;28;20044;-64
2021/12/30 03:05:24;;;;;;;53.78;15.50;;;9.30;99.90;;;;;;5104227;28;20556;-64
2021/12/30 03:07:53;;;;;;;60.45;16.25;;;9.40;99.90;;;;;;5105328;28;20392;-64
2021/12/30 03:10:25;;;;;;;59.53;15.77;;;9.30;99.90;;;;;;5102158;28;20489;-64
2021/12/30 03:12:55;;;;;;;63.75;17.13;;;9.50;99.90;;;;;;5103680;28;20044;-64
2021/12/30 03:15:27;;;;;;;54.03;16.35;;;9.40;99.90;;;;;;5102164;28;20046;-64
2021/12/30 03:17:52;;;;;;;59.65;17.48;;;9.60;99.90;;;;;;5099876;28;20041;-64
2021/12/30 03:20:18;;;;;;;57.45;16.35;;;9.60;99.90;;;;;;5104770;28;20047;-64
2021/12/30 03:22:45;;;;;;;50.75;15.45;;;9.60;99.90;;;;;;5103101;28;20108;-64
2021/12/30 03:25:13;;;;;;;58.47;16.63;;;9.60;99.90;;;;;;5103319;28;20048;-64
2021/12/30 03:27:39;;;;;;;53.38;17.10;;;9.70;99.90;;;;;;5099200;28;20497;-64
2021/12/30 03:30:07;;;;;;;57.33;16.30;;;9.80;99.90;;;;;;5102252;28;20056;-64
2021/12/30 03:32:33;;;;;;;56.17;16.17;;;9.80;99.90;;;;;;5102376;28;20080;-64
2021/12/30 03:34:59;;;;;;;51.30;15.98;;;9.80;99.90;;;;;;5103995;28;20051;-64
2021/12/30 03:37:24;;;;;;;59.35;15.85;;;9.80;99.90;;;;;;5106108;28;20043;-64
2021/12/30 03:39:50;;;;;;;59.13;16.48;;;9.80;99.90;;;;;;5098574;28;20041;-64
2021/12/30 03:42:16;;;;;;;56.85;15.57;;;10.00;99.90;;;;;;5103757;28;20070;-64
2021/12/30 03:44:43;;;;;;;50.33;15.75;;;9.80;99.90;;;;;;5101127;28;20052;-64
2021/12/30 03:47:14;;;;;;;52.10;15.48;;;10.00;99.90;;;;;;5119241;28;20036;-64
2021/12/30 03:49:44;;;;;;;50.83;15.18;;;10.00;99.90;;;;;;5104549;28;20084;-64
2021/12/30 03:52:11;;;;;;;46.58;15.25;;;9.90;99.90;;;;;;5102308;28;20044;-64
2021/12/30 03:54:37;;;;;;;62.75;15.13;;;10.00;99.90;;;;;;5105343;28;20048;-64
2021/12/30 03:57:03;;;;;;;52.13;15.48;;;10.00;99.90;;;;;;5108008;28;20071;-64
2021/12/30 03:59:29;;;;;;;53.28;16.25;;;10.00;99.90;;;;;;5102820;28;20051;-64
2021/12/30 04:01:54;;;;;;;46.63;16.73;;;10.10;99.90;;;;;;5102263;28;20415;-64
2021/12/30 04:04:20;;;;;;;52.22;14.98;;;9.90;99.90;;;;;;5103131;28;20104;-64
2021/12/30 04:06:46;;;;;;;51.15;15.52;;;9.90;99.90;;;;;;5105888;28;20047;-64
2021/12/30 04:09:12;;;;;;;55.90;16.75;;;10.10;99.90;;;;;;5103007;28;20044;-64
2021/12/30 04:11:37;;;;;;;50.10;15.27;;;10.10;99.90;;;;;;5100897;28;20055;-64
2021/12/30 04:14:04;;;;;;;50.25;16.02;;;10.10;99.90;;;;;;5105454;28;20257;-64
2021/12/30 04:16:30;;;;;;;53.17;17.10;;;10.10;99.90;;;;;;5085987;28;20044;-64
2021/12/30 04:18:56;;;;;;;53.90;17.02;;;10.10;99.90;;;;;;5102752;28;20051;-64
2021/12/30 04:21:23;;;;;;;55.17;16.65;;;10.10;99.90;;;;;;5102023;28;20044;-64
2021/12/30 04:23:48;;;;;;;55.63;17.35;;;10.20;99.90;;;;;;5102624;28;20040;-64
2021/12/30 04:26:14;;;;;;;56.42;16.83;;;10.10;99.90;;;;;;5105463;28;20040;-65
2021/12/30 04:28:40;;;;;;;50.92;16.88;;;10.00;99.90;;;;;;5103530;28;20059;-64
2021/12/30 04:31:06;;;;;;;57.03;16.50;;;10.00;99.90;;;;;;5100900;28;20036;-65
2021/12/30 04:33:32;;;;;;;61.40;17.35;;;10.10;99.90;;;;;;5103878;28;20047;-64
2021/12/30 04:35:59;;;;;;;53.78;18.80;;;10.10;99.90;;;;;;5107637;28;20274;-64
2021/12/30 04:38:27;;;;;;;56.13;17.98;;;10.00;99.90;;;;;;5106872;28;20052;-64
2021/12/30 04:40:54;;;;;;;55.13;16.95;;;10.20;99.90;;;;;;5104526;28;20044;-64
2021/12/30 04:43:20;;;;;;;55.65;17.77;;;10.20;99.90;;;;;;5103914;28;20562;-64
2021/12/30 04:45:49;;;;;;;55.30;16.77;;;10.20;99.90;;;;;;5121603;28;20044;-64
2021/12/30 04:48:17;;;;;;;62.40;15.50;;;10.20;99.90;;;;;;5105589;28;20043;-64
2021/12/30 04:50:45;;;;;;;56.50;16.08;;;10.20;99.90;;;;;;5106023;28;20040;-64
2021/12/30 04:53:11;;;;;;;54.45;15.50;;;10.40;99.90;;;;;;5121881;28;20063;-64
2021/12/30 04:55:37;;;;;;;53.17;15.90;;;10.40;99.90;;;;;;5106618;28;20044;-64
2021/12/30 04:58:03;;;;;;;51.22;16.13;;;10.60;99.90;;;;;;5105064;28;20097;-64
2021/12/30 05:00:28;;;;;;;49.75;14.90;;;10.60;99.90;;;;;;5106159;28;20028;-64
2021/12/30 05:05:20;;;;;;;54.88;15.95;;;10.60;99.90;;;;;;5106514;28;20040;-65
2021/12/30 05:07:45;;;;;;;61.30;15.18;;;10.50;99.90;;;;;;5106780;28;20062;-65
2021/12/30 05:10:11;;;;;;;52.00;14.93;;;10.60;99.90;;;;;;5104111;28;20107;-64
2021/12/30 05:12:37;;;;;;;51.80;14.82;;;10.70;99.90;;;;;;5101937;28;20048;-64
2021/12/30 05:15:03;;;;;;;50.30;14.90;;;10.60;99.90;;;;;;5106733;28;20040;-64
2021/12/30 05:17:30;;;;;;;57.33;17.42;;;10.60;99.90;;;;;;5107609;28;20035;-64
2021/12/30 05:19:55;;;;;;;59.35;17.20;;;10.50;99.90;;;;;;5105081;28;20044;-64
2021/12/30 05:22:21;;;;;;;51.70;17.55;;;10.60;99.90;;;;;;5104668;28;20047;-64
2021/12/30 05:24:47;;;;;;;51.28;16.17;;;10.60;99.90;;;;;;5106338;28;20123;-64
2021/12/30 05:27:12;;;;;;;54.35;17.50;;;10.70;99.90;;;;;;5088041;28;20098;-64
2021/12/30 05:29:38;;;;;;;54.28;17.85;;;10.60;99.90;;;;;;5120980;28;20058;-64
2021/12/30 05:32:04;;;;;;;51.20;18.85;;;10.70;99.90;;;;;;5114336;28;20059;-64
2021/12/30 05:34:30;;;;;;;50.38;18.88;;;10.70;99.90;;;;;;5104393;28;20089;-64
2021/12/30 05:36:56;;;;;;;47.63;16.88;;;10.70;99.90;;;;;;5106334;28;20439;-64
2021/12/30 05:39:21;;;;;;;48.53;16.05;;;10.80;99.90;;;;;;5105490;28;20071;-64
2021/12/30 05:41:47;;;;;;;42.97;16.58;;;10.90;99.90;;;;;;5105328;28;20048;-64
2021/12/30 05:44:13;;;;;;;42.97;16.55;;;10.80;99.90;;;;;;5103738;28;20036;-65
2021/12/30 05:46:38;;;;;;;42.08;17.63;;;10.80;99.90;;;;;;5106692;28;20049;-64
2021/12/30 05:49:04;;;;;;;39.00;16.83;;;10.90;99.90;;;;;;5105365;28;20043;-64
2021/12/30 05:51:30;;;;;;;45.53;16.45;;;10.80;99.90;;;;;;5103881;28;20048;-66
2021/12/30 05:53:55;;;;;;;37.00;14.88;;;10.90;99.90;;;;;;5099454;28;20048;-65
2021/12/30 05:56:21;;;;;;;34.80;15.52;;;10.90;99.90;;;;;;5105608;28;20044;-65
2021/12/30 05:58:47;;;;;;;34.70;15.38;;;11.10;99.90;;;;;;5106610;28;20086;-65
2021/12/30 06:01:13;;;;;;;35.53;14.75;;;11.00;99.90;;;;;;5105980;28;20040;-64
2021/12/30 06:03:38;;;;;;;34.05;14.15;;;11.00;99.90;;;;;;5104586;28;20048;-64
2021/12/30 06:06:04;;;;;;;31.95;14.32;;;11.10;99.90;;;;;;5107669;28;20028;-64
2021/12/30 06:08:30;;;;;;;37.78;15.73;;;11.20;99.90;;;;;;5103556;28;20483;-65
2021/12/30 06:10:55;;;;;;;38.65;15.63;;;11.00;99.90;;;;;;5103090;28;20127;-65
2021/12/30 06:13:21;;;;;;;34.15;14.45;;;11.10;99.90;;;;;;5121293;28;20039;-64
2021/12/30 06:15:47;;;;;;;31.73;13.85;;;11.10;99.90;;;;;;5103649;28;20488;-65
2021/12/30 06:18:12;;;;;;;35.75;14.55;;;11.10;99.90;;;;;;5105074;28;20044;-65
2021/12/30 06:20:38;;;;;;;31.00;13.85;;;11.20;99.90;;;;;;5106711;28;20078;-65
2021/12/30 06:23:04;;;;;;;36.42;14.48;;;11.00;99.90;;;;;;5104564;28;20047;-64
2021/12/30 06:25:30;;;;;;;32.85;14.60;;;11.10;99.90;;;;;;5104401;28;20082;-65
2021/12/30 06:27:56;;;;;;;41.47;15.55;;;11.30;99.90;;;;;;5100000;28;20095;-65
2021/12/30 06:30:22;;;;;;;40.20;16.38;;;11.20;99.90;;;;;;5106286;28;20036;-65
2021/12/30 06:32:47;;;;;;;41.80;15.45;;;11.20;99.90;;;;;;5104248;28;20113;-64
2021/12/30 06:35:13;;;;;;;43.80;15.68;;;11.30;99.90;;;;;;5104172;28;20139;-64
2021/12/30 06:37:40;;;;;;;43.55;17.70;;;11.30;99.90;;;;;;5105187;28;20148;-64
2021/12/30 06:40:10;;;;;;;53.00;19.45;;;11.20;99.90;;;;;;5103330;28;20108;-64
2021/12/30 06:42:36;;;;;;;59.40;18.65;;;11.30;99.90;;;;;;5103871;28;20056;-64
2021/12/30 06:45:02;;;;;;;61.60;19.38;;;11.30;99.90;;;;;;5103175;28;20039;-65
2021/12/30 06:47:27;;;;;;;55.88;19.30;;;11.30;99.90;;;;;;5104493;28;20389;-64
2021/12/30 06:49:59;;;;;;;58.13;19.52;;;11.30;99.90;;;;;;5104003;28;20108;-65
2021/12/30 06:52:25;;;;;;;61.53;19.98;;;11.40;99.90;;;;;;5102319;28;20052;-65
2021/12/30 06:54:51;;;;;;;53.95;18.90;;;11.40;99.90;;;;;;5119858;28;20052;-64
2021/12/30 06:57:16;;;;;;;66.80;19.10;;;11.50;99.90;;;;;;5103132;28;20496;-65
2021/12/30 06:59:42;;;;;;;54.60;18.38;;;11.50;99.90;;;;;;5102710;28;20048;-64
2021/12/30 07:02:08;;;;;;;54.08;20.05;;;11.60;99.90;;;;;;5102365;28;20083;-65
2021/12/30 07:04:34;;;;;;;62.28;19.17;;;11.50;99.90;;;;;;5104043;28;20115;-65
2021/12/30 07:07:01;;;;;;;50.70;16.27;;;11.60;99.90;;;;;;5107159;28;20043;-64
2021/12/30 07:09:26;;;;;;;56.75;16.80;;;11.60;99.90;;;;;;5098379;28;20097;-65
2021/12/30 07:11:54;;;;;;;49.13;17.80;;;11.70;99.90;;;;;;5101878;28;20039;-64
2021/12/30 07:14:21;;;;;;;40.95;15.68;;;11.70;99.90;;;;;;5101255;28;20055;-64
2021/12/30 07:16:47;;;;;;;49.47;17.02;;;11.70;99.90;;;;;;5103275;28;20404;-65
2021/12/30 07:19:14;;;;;;;38.35;15.20;;;11.80;99.90;;;;;;5101254;28;20032;-64
2021/12/30 07:21:40;;;;;;;35.30;14.35;;;11.70;99.90;;;;;;5102185;28;20044;-64
2021/12/30 07:24:07;;;;;;;37.60;14.82;;;11.70;99.90;;;;;;5103209;28;20044;-64
2021/12/30 07:26:33;;;;;;;34.70;15.18;;;11.70;99.90;;;;;;5105110;28;20044;-64
2021/12/30 07:28:59;;;;;;;35.17;14.05;;;11.80;99.90;;;;;;5102617;28;20089;-64
2021/12/30 07:31:26;;;;;;;39.63;14.05;;;11.80;99.90;;;;;;5102065;28;20055;-64
2021/12/30 07:33:52;;;;;;;32.67;13.15;;;11.90;99.90;;;;;;5102306;28;20127;-64
2021/12/30 07:36:17;;;;;;;29.77;11.40;;;11.80;99.90;;;;;;5121286;28;20075;-64
2021/12/30 07:38:43;;;;;;;31.38;11.85;;;11.80;99.90;;;;;;5108998;28;20056;-65
2021/12/30 07:41:09;;;;;;;21.60;9.23;;;11.90;99.90;;;;;;5103141;28;20044;-64
2021/12/30 07:43:35;;;;;;;25.58;9.13;;;11.90;99.90;;;;;;5120802;28;20044;-64
2021/12/30 07:46:01;;;;;;;17.58;9.15;;;11.80;99.90;;;;;;5101001;28;20055;-64
2021/12/30 07:48:27;;;;;;;25.27;9.02;;;12.00;99.90;;;;;;5102247;28;20067;-65
2021/12/30 07:50:53;;;;;;;17.98;8.30;;;11.90;99.90;;;;;;5102688;28;20078;-66
2021/12/30 07:53:20;;;;;;;16.70;7.93;;;11.90;99.90;;;;;;5111106;28;20049;-66
2021/12/30 07:55:46;;;;;;;15.60;7.13;;;11.90;99.90;;;;;;5113134;28;20616;-65
2021/12/30 07:58:11;;;;;;;16.63;6.80;;;12.00;99.90;;;;;;5112162;28;20059;-66
2021/12/30 08:00:37;;;;;;;12.95;5.93;;;12.00;99.90;;;;;;5111695;28;20073;-66
2021/12/30 08:03:03;;;;;;;12.80;5.80;;;12.00;99.90;;;;;;5113439;28;20044;-66
2021/12/30 08:05:29;;;;;;;11.23;6.03;;;12.00;99.90;;;;;;5115542;28;20047;-66
2021/12/30 08:07:55;;;;;;;10.65;5.50;;;12.00;99.90;;;;;;5111068;28;20044;-65
2021/12/30 08:10:22;;;;;;;8.80;4.45;;;12.10;99.90;;;;;;5115212;28;20048;-66
2021/12/30 08:12:50;;;;;;;10.20;4.95;;;12.10;99.90;;;;;;5115045;28;20047;-65
2021/12/30 08:15:17;;;;;;;8.02;5.15;;;11.90;99.90;;;;;;5115355;28;20040;-65
2021/12/30 08:17:44;;;;;;;7.47;4.72;;;12.00;99.90;;;;;;5113971;28;20103;-66
2021/12/30 08:20:12;;;;;;;7.68;4.40;;;12.00;99.90;;;;;;5116370;28;20078;-65
2021/12/30 08:22:38;;;;;;;7.88;5.20;;;12.10;99.90;;;;;;5115800;28;20442;-67
2021/12/30 08:25:05;;;;;;;6.45;4.25;;;12.10;99.90;;;;;;5116074;28;20206;-66
2021/12/30 08:27:31;;;;;;;7.28;4.72;;;12.10;99.90;;;;;;5114293;28;20407;-66
2021/12/30 08:29:57;;;;;;;6.97;5.00;;;12.10;99.90;;;;;;5113686;28;20044;-66
2021/12/30 08:32:22;;;;;;;7.72;4.97;;;12.10;99.90;;;;;;5113632;28;20135;-67
2021/12/30 08:34:48;;;;;;;8.10;4.60;;;12.00;99.90;;;;;;5105755;28;20032;-67
2021/12/30 08:37:16;;;;;;;6.07;4.38;;;12.10;99.90;;;;;;5105254;28;20048;-66
2021/12/30 08:39:43;;;;;;;6.47;4.35;;;12.10;99.90;;;;;;5106359;28;20063;-67
2021/12/30 08:42:21;;;;;;;6.10;4.00;;;12.10;99.90;;;;;;5105360;28;20051;-66
2021/12/30 08:44:47;;;;;;;5.18;3.83;;;12.20;99.90;;;;;;5102763;28;20054;-66
2021/12/30 08:47:15;;;;;;;5.32;3.95;;;12.20;99.90;;;;;;5107507;28;20064;-65
2021/12/30 08:49:44;;;;;;;5.13;3.70;;;12.10;99.90;;;;;;5108549;28;20048;-65
2021/12/30 08:52:10;;;;;;;5.85;4.32;;;12.10;99.90;;;;;;5105737;28;20059;-64
2021/12/30 08:54:36;;;;;;;5.22;3.58;;;12.20;99.90;;;;;;5102316;28;20051;-64
2021/12/30 08:57:04;;;;;;;8.93;3.95;;;12.20;99.90;;;;;;5106227;28;20040;-64
2021/12/30 08:59:29;;;;;;;7.88;4.30;;;12.20;99.90;;;;;;5105208;28;20036;-64
2021/12/30 09:01:55;;;;;;;5.43;3.70;;;12.20;99.90;;;;;;5104816;28;20047;-64
2021/12/30 09:04:21;;;;;;;5.15;3.60;;;12.40;99.90;;;;;;5104593;28;20044;-64
2021/12/30 09:06:47;;;;;;;5.30;3.58;;;12.30;99.90;;;;;;5106187;28;20066;-64
2021/12/30 09:09:13;;;;;;;8.45;4.65;;;12.30;99.90;;;;;;5106349;28;20040;-64
2021/12/30 09:11:38;;;;;;;7.32;4.35;;;12.30;99.90;;;;;;5122552;28;20488;-64
2021/12/30 09:14:04;;;;;;;9.38;5.20;;;12.30;99.90;;;;;;5105128;28;20050;-64
2021/12/30 09:16:30;;;;;;;8.07;5.38;;;12.30;99.90;;;;;;5119364;28;20104;-66
2021/12/30 09:18:57;;;;;;;7.53;5.60;;;12.50;99.90;;;;;;5107231;28;20044;-67
2021/12/30 09:21:22;;;;;;;11.40;6.13;;;12.40;99.90;;;;;;5108287;28;20044;-71
2021/12/30 09:23:48;;;;;;;12.23;6.15;;;12.30;99.90;;;;;;5105669;28;20048;-67
2021/12/30 09:26:15;;;;;;;12.18;6.13;;;12.40;99.90;;;;;;5104797;28;20107;-67
2021/12/30 09:28:40;;;;;;;11.23;5.00;;;12.40;99.90;;;;;;5101520;28;20056;-67
2021/12/30 09:31:06;;;;;;;10.43;6.25;;;12.40;99.90;;;;;;5106092;28;20050;-67
2021/12/30 09:33:33;;;;;;;13.65;6.15;;;12.50;99.90;;;;;;5106986;28;20594;-67
2021/12/30 09:36:02;;;;;;;13.18;6.45;;;12.50;99.90;;;;;;5105285;28;20051;-68
2021/12/30 09:38:28;;;;;;;11.13;5.47;;;12.50;99.90;;;;;;5104849;28;20059;-67
2021/12/30 09:40:54;;;;;;;12.48;6.75;;;12.40;99.90;;;;;;5106317;28;20043;-67
2021/12/30 09:43:20;;;;;;;14.77;5.95;;;12.40;99.90;;;;;;5103874;28;20040;-68
2021/12/30 09:45:46;;;;;;;9.00;5.90;;;12.50;99.90;;;;;;5103712;28;20051;-67
2021/12/30 09:48:14;;;;;;;8.20;6.60;;;12.50;99.90;;;;;;5104475;28;20063;-67
2021/12/30 09:50:46;;;;;;;11.75;6.80;;;12.50;99.90;;;;;;5103721;28;20100;-67
2021/12/30 09:53:13;;;;;;;13.57;6.72;;;12.60;99.90;;;;;;5104995;28;20048;-67
2021/12/30 09:55:39;;;;;;;17.00;8.00;;;12.60;99.90;;;;;;5105401;28;20067;-68
2021/12/30 09:58:06;;;;;;;10.77;7.88;;;12.60;99.90;;;;;;5104975;28;20452;-68
2021/12/30 10:00:32;;;;;;;11.43;7.97;;;12.50;99.90;;;;;;5104642;28;20048;-68
2021/12/30 10:02:58;;;;;;;10.90;6.90;;;12.60;99.90;;;;;;5122229;28;20097;-67
2021/12/30 10:05:27;;;;;;;15.63;8.02;;;12.60;99.90;;;;;;5104498;28;20036;-67
2021/12/30 10:08:21;;;;;;;14.07;8.50;;;12.60;99.90;;;;;;5105158;28;20403;-68
2021/12/30 10:10:50;;;;;;;13.43;7.90;;;12.50;99.90;;;;;;5099401;28;20058;-68
2021/12/30 10:13:30;;;;;;;10.63;7.15;;;12.50;99.90;;;;;;5103789;28;20054;-67
2021/12/30 10:15:59;;;;;;;14.65;7.40;;;12.60;99.90;;;;;;5100503;28;20521;-68
2021/12/30 10:18:44;;;;;;;12.00;6.28;;;12.60;99.90;;;;;;5104348;28;20052;-67
2021/12/30 10:21:15;;;;;;;9.50;6.95;;;12.60;99.90;;;;;;5103188;28;20044;-68
2021/12/30 10:23:47;;;;;;;9.63;6.72;;;12.60;99.90;;;;;;5103624;28;20523;-68
2021/12/30 10:26:15;;;;;;;11.15;6.53;;;12.50;99.90;;;;;;5103442;28;20040;-68
2021/12/30 10:28:43;;;;;;;10.88;6.13;;;12.60;99.90;;;;;;5105536;28;20070;-68
2021/12/30 10:31:12;;;;;;;11.10;5.45;;;12.50;99.90;;;;;;5086252;28;20090;-68
2021/12/30 10:33:58;;;;;;;8.13;5.55;;;12.60;99.90;;;;;;5098144;28;20407;-68
2021/12/30 10:36:42;;;;;;;9.25;5.22;;;12.60;99.90;;;;;;5104075;28;20462;-68
2021/12/30 10:39:26;;;;;;;14.35;6.13;;;12.50;99.90;;;;;;5103956;28;20063;-68
2021/12/30 10:42:04;;;;;;;8.60;5.00;;;12.60;99.90;;;;;;5102505;28;20051;-68
2021/12/30 10:44:50;;;;;;;13.95;6.10;;;12.50;99.90;;;;;;5105801;28;20048;-68
2021/12/30 10:47:17;;;;;;;9.52;5.35;;;12.60;99.90;;;;;;5103471;28;20036;-68
2021/12/30 10:49:54;;;;;;;8.80;4.75;;;12.50;99.90;;;;;;5103622;28;20076;-68
2021/12/30 10:52:20;;;;;;;11.05;5.53;;;12.70;99.90;;;;;;5120058;28;20118;-68
2021/12/30 10:54:46;;;;;;;10.50;4.70;;;12.60;99.90;;;;;;5100308;28;20488;-68
2021/12/30 10:57:12;;;;;;;13.23;5.80;;;12.50;99.90;;;;;;5105041;28;20054;-68
2021/12/30 10:59:42;;;;;;;11.30;5.40;;;12.50;99.90;;;;;;5104860;28;20488;-68
2021/12/30 11:02:17;;;;;;;14.90;6.07;;;12.60;99.90;;;;;;5094221;28;20043;-68
2021/12/30 11:04:46;;;;;;;12.75;5.28;;;12.50;99.90;;;;;;5097132;28;20062;-68
2021/12/30 11:07:15;;;;;;;14.05;5.07;;;12.60;99.90;;;;;;5103723;28;20890;-68
2021/12/30 11:09:56;;;;;;;14.95;5.63;;;12.50;99.90;;;;;;5104611;28;20064;-68
2021/12/30 11:12:38;;;;;;;15.48;5.25;;;12.60;99.90;;;;;;5101428;28;20044;-68
2021/12/30 11:15:24;;;;;;;13.57;5.90;;;12.70;99.90;;;;;;5096974;28;20052;-68
2021/12/30 11:17:51;;;;;;;16.58;5.30;;;12.50;99.90;;;;;;5102212;28;20605;-68
2021/12/30 11:20:20;;;;;;;16.98;6.28;;;12.70;99.90;;;;;;5120470;28;20047;-68
2021/12/30 11:22:50;;;;;;;15.73;4.45;;;12.60;99.90;;;;;;5103721;28;20033;-68
2021/12/30 11:25:20;;;;;;;17.23;5.88;;;12.70;99.90;;;;;;5104264;28;20074;-68
2021/12/30 11:27:46;;;;;;;16.08;4.95;;;12.80;99.90;;;;;;5096070;28;20041;-68
2021/12/30 11:30:16;;;;;;;21.40;6.05;;;12.70;99.90;;;;;;5103030;28;20052;-69
2021/12/30 11:32:47;;;;;;;22.17;5.75;;;12.60;99.90;;;;;;5103950;28;20127;-68
2021/12/30 11:35:14;;;;;;;17.15;6.43;;;12.80;99.90;;;;;;5103662;28;20054;-68
2021/12/30 11:37:40;;;;;;;19.48;6.07;;;12.70;99.90;;;;;;5103756;28;20048;-68
2021/12/30 11:40:11;;;;;;;19.30;5.65;;;12.80;99.90;;;;;;5085433;28;20047;-68
2021/12/30 11:42:37;;;;;;;20.00;5.68;;;12.70;99.90;;;;;;5106666;28;20048;-68
2021/12/30 11:45:24;;;;;;;17.92;5.00;;;12.70;99.90;;;;;;5103478;28;20089;-68
2021/12/30 11:47:50;;;;;;;22.75;5.45;;;12.70;99.90;;;;;;5107520;28;20123;-69
2021/12/30 11:50:33;;;;;;;20.45;5.85;;;12.70;99.90;;;;;;5088630;28;20232;-68
2021/12/30 11:53:11;;;;;;;18.85;6.05;;;12.80;99.90;;;;;;5120256;28;20058;-69
2021/12/30 11:55:44;;;;;;;20.85;5.18;;;12.90;99.90;;;;;;5120406;28;20092;-68
2021/12/30 11:58:40;;;;;;;21.40;5.57;;;12.80;99.90;;;;;;5111784;28;20044;-68
2021/12/30 12:01:12;;;;;;;22.25;4.93;;;12.80;99.90;;;;;;5098622;28;20052;-69
2021/12/30 12:03:56;;;;;;;22.70;5.30;;;12.80;99.90;;;;;;5106364;28;20047;-68
2021/12/30 12:06:27;;;;;;;20.80;5.05;;;12.80;99.90;;;;;;5118631;28;20061;-70
2021/12/30 12:08:56;;;;;;;23.80;5.72;;;12.80;99.90;;;;;;5121702;28;20044;-69
2021/12/30 12:11:24;;;;;;;18.30;5.55;;;12.90;99.90;;;;;;5115285;28;20046;-67
2021/12/30 12:13:51;;;;;;;23.77;5.95;;;12.80;99.90;;;;;;5114413;28;20047;-67
2021/12/30 12:16:53;;;;;;;24.40;5.82;;;12.90;99.90;;;;;;5118925;28;20511;-68
2021/12/30 12:19:22;;;;;;;20.38;4.75;;;12.80;99.90;;;;;;5089408;28;20080;-67
2021/12/30 12:21:52;;;;;;;30.67;6.40;;;12.90;99.90;;;;;;5103336;28;20032;-68
2021/12/30 12:24:21;;;;;;;20.95;4.15;;;12.80;99.90;;;;;;5115936;28;20109;-66
2021/12/30 12:26:53;;;;;;;19.60;5.05;;;12.80;99.90;;;;;;5112772;28;20056;-72
2021/12/30 12:29:31;;;;;;;18.60;4.45;;;12.80;99.90;;;;;;5079143;28;20047;-68
2021/12/30 12:31:58;;;;;;;24.90;5.13;;;12.70;99.90;;;;;;5103783;27;20114;-67
2021/12/30 12:34:53;;;;;;;17.52;4.95;;;12.80;99.90;;;;;;5097596;28;20092;-67
2021/12/30 12:37:36;;;;;;;16.73;4.63;;;12.70;99.90;;;;;;5098389;28;20052;-68
2021/12/30 12:40:11;;;;;;;25.00;5.45;;;12.80;99.90;;;;;;5090304;28;20459;-67
2021/12/30 12:42:42;;;;;;;26.42;5.35;;;12.70;99.90;;;;;;5097476;28;20122;-67
2021/12/30 12:45:28;;;;;;;24.20;4.85;;;12.80;99.90;;;;;;5090103;28;20035;-67
2021/12/30 12:48:16;;;;;;;20.67;4.32;;;12.80;99.90;;;;;;5091542;28;20083;-67